Terminal Aerodrome Forecast
Issued by NWS Wilmington, NC

Current Version | Previous Version | Text Only | Print | Product List | Glossary On
Versions: 1 2 3 4 5 6 7 8 9 10 11 12 13 14 15 16
000
FTUS42 KILM 061123
TAFMYR
TAF
KMYR 061123Z 0612/0712 08012G20KT 5SM RA OVC006
     FM061600 23011KT 4SM -RA BR OVC004
     FM062000 26009KT 4SM -DZ BR BKN007
     FM070500 32005KT 2SM BR BKN004 OVC007=

USA.gov is the U.S. government's official web portal to all federal, state and local government web resources and services.